sensor_id;sensor_type;location;lat;lon;timestamp;P1;durP1;ratioP1;P2;durP2;ratioP2
9547;SDS011;4812;51.992;8.648;2023-02-15T00:00:06;26.83;;;13.43;;
9547;SDS011;4812;51.992;8.648;2023-02-15T00:02:36;21.73;;;12.67;;
9547;SDS011;4812;51.992;8.648;2023-02-15T00:05:04;21.50;;;13.20;;
9547;SDS011;4812;51.992;8.648;2023-02-15T00:07:32;25.90;;;12.97;;
9547;SDS011;4812;51.992;8.648;2023-02-15T00:09:59;22.23;;;12.90;;
9547;SDS011;4812;51.992;8.648;2023-02-15T00:12:27;24.77;;;13.90;;
9547;SDS011;4812;51.992;8.648;2023-02-15T00:14:56;24.10;;;13.53;;
9547;SDS011;4812;51.992;8.648;2023-02-15T00:20:24;23.13;;;13.13;;
9547;SDS011;4812;51.992;8.648;2023-02-15T00:22:51;22.03;;;12.40;;
9547;SDS011;4812;51.992;8.648;2023-02-15T00:25:22;22.40;;;13.65;;
9547;SDS011;4812;51.992;8.648;2023-02-15T00:27:49;21.70;;;13.73;;
9547;SDS011;4812;51.992;8.648;2023-02-15T00:30:18;23.53;;;12.87;;
9547;SDS011;4812;51.992;8.648;2023-02-15T00:32:46;24.70;;;13.43;;
9547;SDS011;4812;51.992;8.648;2023-02-15T00:35:14;25.70;;;13.53;;
9547;SDS011;4812;51.992;8.648;2023-02-15T00:40:51;25.23;;;13.37;;
9547;SDS011;4812;51.992;8.648;2023-02-15T00:43:19;22.50;;;13.93;;
9547;SDS011;4812;51.992;8.648;2023-02-15T00:45:48;26.23;;;14.10;;
9547;SDS011;4812;51.992;8.648;2023-02-15T00:48:17;23.33;;;12.77;;
9547;SDS011;4812;51.992;8.648;2023-02-15T00:50:44;22.63;;;12.17;;
9547;SDS011;4812;51.992;8.648;2023-02-15T00:56:15;25.93;;;13.53;;
9547;SDS011;4812;51.992;8.648;2023-02-15T00:58:42;27.90;;;13.33;;
9547;SDS011;4812;51.992;8.648;2023-02-15T01:01:12;23.83;;;13.93;;
9547;SDS011;4812;51.992;8.648;2023-02-15T01:03:41;22.77;;;13.23;;
9547;SDS011;4812;51.992;8.648;2023-02-15T01:06:08;20.00;;;12.77;;
9547;SDS011;4812;51.992;8.648;2023-02-15T01:08:36;22.37;;;12.50;;
9547;SDS011;4812;51.992;8.648;2023-02-15T01:11:04;22.23;;;13.73;;
9547;SDS011;4812;51.992;8.648;2023-02-15T01:13:32;21.37;;;12.77;;
9547;SDS011;4812;51.992;8.648;2023-02-15T01:16:00;19.97;;;12.57;;
9547;SDS011;4812;51.992;8.648;2023-02-15T01:18:30;26.03;;;13.73;;
9547;SDS011;4812;51.992;8.648;2023-02-15T01:20:58;17.33;;;11.47;;
9547;SDS011;4812;51.992;8.648;2023-02-15T01:23:25;22.23;;;12.43;;
9547;SDS011;4812;51.992;8.648;2023-02-15T01:25:53;19.00;;;12.80;;
9547;SDS011;4812;51.992;8.648;2023-02-15T01:28:20;22.87;;;12.33;;
9547;SDS011;4812;51.992;8.648;2023-02-15T01:33:52;22.53;;;13.47;;
9547;SDS011;4812;51.992;8.648;2023-02-15T01:36:19;25.77;;;13.67;;
9547;SDS011;4812;51.992;8.648;2023-02-15T01:38:47;16.53;;;11.17;;
9547;SDS011;4812;51.992;8.648;2023-02-15T01:41:15;20.27;;;12.40;;
9547;SDS011;4812;51.992;8.648;2023-02-15T01:43:50;20.60;;;12.23;;
9547;SDS011;4812;51.992;8.648;2023-02-15T01:46:20;20.60;;;11.53;;
9547;SDS011;4812;51.992;8.648;2023-02-15T01:48:51;19.83;;;12.67;;
9547;SDS011;4812;51.992;8.648;2023-02-15T01:51:22;22.87;;;12.57;;
9547;SDS011;4812;51.992;8.648;2023-02-15T01:53:51;23.37;;;12.03;;
9547;SDS011;4812;51.992;8.648;2023-02-15T01:56:21;23.93;;;12.13;;
9547;SDS011;4812;51.992;8.648;2023-02-15T02:01:59;20.60;;;11.27;;
9547;SDS011;4812;51.992;8.648;2023-02-15T02:04:29;23.60;;;12.93;;
9547;SDS011;4812;51.992;8.648;2023-02-15T02:07:00;24.00;;;13.07;;
9547;SDS011;4812;51.992;8.648;2023-02-15T02:09:30;22.57;;;12.13;;
9547;SDS011;4812;51.992;8.648;2023-02-15T02:14:46;22.73;;;12.83;;
9547;SDS011;4812;51.992;8.648;2023-02-15T02:17:17;26.47;;;14.30;;
9547;SDS011;4812;51.992;8.648;2023-02-15T02:20:04;23.50;;;13.23;;
9547;SDS011;4812;51.992;8.648;2023-02-15T02:25:47;22.57;;;13.37;;
9547;SDS011;4812;51.992;8.648;2023-02-15T02:28:44;43.17;;;23.35;;
9547;SDS011;4812;51.992;8.648;2023-02-15T02:31:32;34.13;;;16.17;;
9547;SDS011;4812;51.992;8.648;2023-02-15T02:37:12;28.23;;;13.87;;
9547;SDS011;4812;51.992;8.648;2023-02-15T02:39:48;25.50;;;14.07;;
9547;SDS011;4812;51.992;8.648;2023-02-15T02:42:21;22.93;;;14.00;;
9547;SDS011;4812;51.992;8.648;2023-02-15T02:44:52;26.03;;;14.57;;
9547;SDS011;4812;51.992;8.648;2023-02-15T02:47:26;25.23;;;13.90;;
9547;SDS011;4812;51.992;8.648;2023-02-15T02:49:58;23.60;;;13.67;;
9547;SDS011;4812;51.992;8.648;2023-02-15T02:55:27;25.80;;;14.63;;
9547;SDS011;4812;51.992;8.648;2023-02-15T02:57:57;23.93;;;12.37;;
9547;SDS011;4812;51.992;8.648;2023-02-15T03:00:31;23.33;;;13.50;;
9547;SDS011;4812;51.992;8.648;2023-02-15T03:03:02;25.00;;;14.27;;
9547;SDS011;4812;51.992;8.648;2023-02-15T03:05:32;26.00;;;14.50;;
9547;SDS011;4812;51.992;8.648;2023-02-15T03:08:01;26.73;;;14.03;;
9547;SDS011;4812;51.992;8.648;2023-02-15T03:10:33;24.83;;;12.90;;
9547;SDS011;4812;51.992;8.648;2023-02-15T03:13:03;29.03;;;13.57;;
9547;SDS011;4812;51.992;8.648;2023-02-15T03:15:31;28.17;;;14.03;;
9547;SDS011;4812;51.992;8.648;2023-02-15T03:18:15;26.07;;;13.73;;
9547;SDS011;4812;51.992;8.648;2023-02-15T03:20:44;28.97;;;13.63;;
9547;SDS011;4812;51.992;8.648;2023-02-15T03:23:12;22.53;;;12.07;;
9547;SDS011;4812;51.992;8.648;2023-02-15T03:25:44;24.23;;;13.27;;
9547;SDS011;4812;51.992;8.648;2023-02-15T03:28:15;20.63;;;12.93;;
9547;SDS011;4812;51.992;8.648;2023-02-15T03:30:47;27.50;;;13.87;;
9547;SDS011;4812;51.992;8.648;2023-02-15T03:33:16;22.93;;;12.47;;
9547;SDS011;4812;51.992;8.648;2023-02-15T03:35:45;26.00;;;13.17;;
9547;SDS011;4812;51.992;8.648;2023-02-15T03:38:17;31.27;;;14.03;;
9547;SDS011;4812;51.992;8.648;2023-02-15T03:40:48;21.20;;;12.87;;
9547;SDS011;4812;51.992;8.648;2023-02-15T03:43:36;25.57;;;13.07;;
9547;SDS011;4812;51.992;8.648;2023-02-15T03:46:11;25.67;;;13.10;;
9547;SDS011;4812;51.992;8.648;2023-02-15T03:48:41;25.47;;;12.73;;
9547;SDS011;4812;51.992;8.648;2023-02-15T03:51:11;28.00;;;13.87;;
9547;SDS011;4812;51.992;8.648;2023-02-15T03:53:59;24.00;;;12.73;;
9547;SDS011;4812;51.992;8.648;2023-02-15T03:56:29;27.60;;;13.10;;
9547;SDS011;4812;51.992;8.648;2023-02-15T03:58:57;22.67;;;12.73;;
9547;SDS011;4812;51.992;8.648;2023-02-15T04:01:45;26.40;;;13.43;;
9547;SDS011;4812;51.992;8.648;2023-02-15T04:04:25;25.07;;;14.10;;
9547;SDS011;4812;51.992;8.648;2023-02-15T04:06:55;26.97;;;12.47;;
9547;SDS011;4812;51.992;8.648;2023-02-15T04:09:23;24.10;;;13.23;;
9547;SDS011;4812;51.992;8.648;2023-02-15T04:12:09;27.97;;;13.03;;
9547;SDS011;4812;51.992;8.648;2023-02-15T04:14:37;24.40;;;12.90;;
9547;SDS011;4812;51.992;8.648;2023-02-15T04:17:08;25.37;;;12.90;;
9547;SDS011;4812;51.992;8.648;2023-02-15T04:19:36;23.53;;;12.87;;
9547;SDS011;4812;51.992;8.648;2023-02-15T04:22:21;28.23;;;14.20;;
9547;SDS011;4812;51.992;8.648;2023-02-15T04:25:06;26.27;;;12.57;;
9547;SDS011;4812;51.992;8.648;2023-02-15T04:27:39;23.27;;;12.80;;
9547;SDS011;4812;51.992;8.648;2023-02-15T04:30:08;27.17;;;14.03;;
9547;SDS011;4812;51.992;8.648;2023-02-15T04:32:37;26.00;;;13.70;;
9547;SDS011;4812;51.992;8.648;2023-02-15T04:35:05;24.60;;;12.80;;
9547;SDS011;4812;51.992;8.648;2023-02-15T04:37:33;30.33;;;14.07;;
9547;SDS011;4812;51.992;8.648;2023-02-15T04:42:55;25.30;;;12.07;;
9547;SDS011;4812;51.992;8.648;2023-02-15T04:48:25;25.80;;;12.80;;
9547;SDS011;4812;51.992;8.648;2023-02-15T04:50:52;28.63;;;13.57;;
9547;SDS011;4812;51.992;8.648;2023-02-15T04:53:20;26.47;;;12.67;;
9547;SDS011;4812;51.992;8.648;2023-02-15T04:55:47;30.43;;;12.80;;
9547;SDS011;4812;51.992;8.648;2023-02-15T04:58:16;26.90;;;12.80;;
9547;SDS011;4812;51.992;8.648;2023-02-15T05:00:43;26.13;;;13.10;;
9547;SDS011;4812;51.992;8.648;2023-02-15T05:03:11;22.47;;;11.83;;
9547;SDS011;4812;51.992;8.648;2023-02-15T05:05:38;23.27;;;11.60;;
9547;SDS011;4812;51.992;8.648;2023-02-15T05:10:55;19.77;;;10.77;;
9547;SDS011;4812;51.992;8.648;2023-02-15T05:13:24;29.20;;;12.50;;
9547;SDS011;4812;51.992;8.648;2023-02-15T05:15:52;24.40;;;11.60;;
9547;SDS011;4812;51.992;8.648;2023-02-15T05:18:20;23.67;;;12.53;;
9547;SDS011;4812;51.992;8.648;2023-02-15T05:20:48;19.77;;;11.67;;
9547;SDS011;4812;51.992;8.648;2023-02-15T05:23:16;28.47;;;13.30;;
9547;SDS011;4812;51.992;8.648;2023-02-15T05:28:37;23.33;;;11.43;;
9547;SDS011;4812;51.992;8.648;2023-02-15T05:31:05;27.07;;;12.07;;
9547;SDS011;4812;51.992;8.648;2023-02-15T05:33:34;28.07;;;12.77;;
9547;SDS011;4812;51.992;8.648;2023-02-15T05:36:02;24.20;;;13.53;;
9547;SDS011;4812;51.992;8.648;2023-02-15T05:38:31;23.70;;;12.10;;
9547;SDS011;4812;51.992;8.648;2023-02-15T05:40:59;24.17;;;13.10;;
9547;SDS011;4812;51.992;8.648;2023-02-15T05:46:35;25.63;;;12.10;;
9547;SDS011;4812;51.992;8.648;2023-02-15T05:49:05;20.97;;;11.77;;
9547;SDS011;4812;51.992;8.648;2023-02-15T05:51:32;24.30;;;11.87;;
9547;SDS011;4812;51.992;8.648;2023-02-15T05:54:00;20.63;;;11.57;;
9547;SDS011;4812;51.992;8.648;2023-02-15T05:56:27;20.93;;;10.97;;
9547;SDS011;4812;51.992;8.648;2023-02-15T06:01:58;22.83;;;11.67;;
9547;SDS011;4812;51.992;8.648;2023-02-15T06:04:26;26.07;;;12.83;;
9547;SDS011;4812;51.992;8.648;2023-02-15T06:06:53;24.70;;;12.50;;
9547;SDS011;4812;51.992;8.648;2023-02-15T06:12:07;27.73;;;13.27;;
9547;SDS011;4812;51.992;8.648;2023-02-15T06:14:34;27.53;;;13.70;;
9547;SDS011;4812;51.992;8.648;2023-02-15T06:17:03;22.77;;;12.37;;
9547;SDS011;4812;51.992;8.648;2023-02-15T06:19:30;19.83;;;12.13;;
9547;SDS011;4812;51.992;8.648;2023-02-15T06:21:58;22.97;;;12.17;;
9547;SDS011;4812;51.992;8.648;2023-02-15T06:24:25;20.83;;;11.13;;
9547;SDS011;4812;51.992;8.648;2023-02-15T06:29:47;21.37;;;11.30;;
9547;SDS011;4812;51.992;8.648;2023-02-15T06:32:16;23.07;;;12.27;;
9547;SDS011;4812;51.992;8.648;2023-02-15T06:34:43;22.17;;;12.43;;
9547;SDS011;4812;51.992;8.648;2023-02-15T06:37:13;28.53;;;12.27;;
9547;SDS011;4812;51.992;8.648;2023-02-15T06:39:41;23.93;;;12.13;;
9547;SDS011;4812;51.992;8.648;2023-02-15T06:42:09;27.67;;;12.97;;
9547;SDS011;4812;51.992;8.648;2023-02-15T06:44:36;25.50;;;12.00;;
9547;SDS011;4812;51.992;8.648;2023-02-15T06:47:03;23.70;;;12.90;;
9547;SDS011;4812;51.992;8.648;2023-02-15T06:49:32;22.87;;;12.83;;
9547;SDS011;4812;51.992;8.648;2023-02-15T06:52:00;23.50;;;11.23;;
9547;SDS011;4812;51.992;8.648;2023-02-15T06:54:27;22.97;;;11.43;;
9547;SDS011;4812;51.992;8.648;2023-02-15T06:56:55;23.40;;;11.87;;
9547;SDS011;4812;51.992;8.648;2023-02-15T06:59:22;26.93;;;13.43;;
9547;SDS011;4812;51.992;8.648;2023-02-15T07:01:49;24.90;;;12.13;;
9547;SDS011;4812;51.992;8.648;2023-02-15T07:04:17;25.83;;;11.90;;
9547;SDS011;4812;51.992;8.648;2023-02-15T07:09:34;27.03;;;12.73;;
9547;SDS011;4812;51.992;8.648;2023-02-15T07:12:02;25.03;;;13.47;;
9547;SDS011;4812;51.992;8.648;2023-02-15T07:14:47;30.30;;;14.57;;
9547;SDS011;4812;51.992;8.648;2023-02-15T07:17:15;28.27;;;13.73;;
9547;SDS011;4812;51.992;8.648;2023-02-15T07:20:00;29.93;;;14.90;;
9547;SDS011;4812;51.992;8.648;2023-02-15T07:22:28;27.87;;;14.10;;
9547;SDS011;4812;51.992;8.648;2023-02-15T07:27:57;23.83;;;13.97;;
9547;SDS011;4812;51.992;8.648;2023-02-15T07:30:24;28.53;;;15.30;;
9547;SDS011;4812;51.992;8.648;2023-02-15T07:32:54;29.87;;;15.43;;
9547;SDS011;4812;51.992;8.648;2023-02-15T07:35:26;25.90;;;14.27;;
9547;SDS011;4812;51.992;8.648;2023-02-15T07:37:53;26.47;;;14.90;;
9547;SDS011;4812;51.992;8.648;2023-02-15T07:40:21;32.40;;;15.70;;
9547;SDS011;4812;51.992;8.648;2023-02-15T07:45:39;27.00;;;15.03;;
9547;SDS011;4812;51.992;8.648;2023-02-15T07:48:07;28.13;;;14.60;;
9547;SDS011;4812;51.992;8.648;2023-02-15T07:50:34;34.60;;;16.77;;
9547;SDS011;4812;51.992;8.648;2023-02-15T07:53:02;25.37;;;14.27;;
9547;SDS011;4812;51.992;8.648;2023-02-15T07:58:19;28.90;;;15.40;;
9547;SDS011;4812;51.992;8.648;2023-02-15T08:00:47;25.07;;;14.87;;
9547;SDS011;4812;51.992;8.648;2023-02-15T08:03:24;27.20;;;16.00;;
9547;SDS011;4812;51.992;8.648;2023-02-15T08:05:55;30.53;;;15.60;;
9547;SDS011;4812;51.992;8.648;2023-02-15T08:11:23;27.50;;;15.77;;
9547;SDS011;4812;51.992;8.648;2023-02-15T08:14:00;26.53;;;14.90;;
9547;SDS011;4812;51.992;8.648;2023-02-15T08:16:32;25.53;;;14.83;;
9547;SDS011;4812;51.992;8.648;2023-02-15T08:19:01;26.00;;;15.00;;
9547;SDS011;4812;51.992;8.648;2023-02-15T08:21:31;26.40;;;14.67;;
9547;SDS011;4812;51.992;8.648;2023-02-15T08:23:59;27.97;;;14.60;;
9547;SDS011;4812;51.992;8.648;2023-02-15T08:26:30;29.90;;;15.53;;
9547;SDS011;4812;51.992;8.648;2023-02-15T08:28:58;25.40;;;14.63;;
9547;SDS011;4812;51.992;8.648;2023-02-15T08:31:26;30.83;;;14.93;;
9547;SDS011;4812;51.992;8.648;2023-02-15T08:33:56;29.43;;;15.83;;
9547;SDS011;4812;51.992;8.648;2023-02-15T08:36:24;26.80;;;16.50;;
9547;SDS011;4812;51.992;8.648;2023-02-15T08:38:53;27.87;;;15.63;;
9547;SDS011;4812;51.992;8.648;2023-02-15T08:41:22;27.33;;;16.00;;
9547;SDS011;4812;51.992;8.648;2023-02-15T08:43:51;30.03;;;17.13;;
9547;SDS011;4812;51.992;8.648;2023-02-15T08:46:20;26.80;;;15.77;;
9547;SDS011;4812;51.992;8.648;2023-02-15T08:48:49;28.27;;;16.17;;
9547;SDS011;4812;51.992;8.648;2023-02-15T08:51:18;29.30;;;16.17;;
9547;SDS011;4812;51.992;8.648;2023-02-15T08:53:47;32.90;;;16.73;;
9547;SDS011;4812;51.992;8.648;2023-02-15T08:56:16;27.37;;;15.83;;
9547;SDS011;4812;51.992;8.648;2023-02-15T09:01:34;26.50;;;15.77;;
9547;SDS011;4812;51.992;8.648;2023-02-15T09:04:02;27.77;;;16.37;;
9547;SDS011;4812;51.992;8.648;2023-02-15T09:06:32;29.03;;;17.20;;
9547;SDS011;4812;51.992;8.648;2023-02-15T09:09:00;26.30;;;17.03;;
9547;SDS011;4812;51.992;8.648;2023-02-15T09:11:28;32.60;;;18.23;;
9547;SDS011;4812;51.992;8.648;2023-02-15T09:13:58;30.37;;;18.67;;
9547;SDS011;4812;51.992;8.648;2023-02-15T09:16:27;32.13;;;18.27;;
9547;SDS011;4812;51.992;8.648;2023-02-15T09:18:56;26.80;;;17.23;;
9547;SDS011;4812;51.992;8.648;2023-02-15T09:21:25;28.27;;;17.10;;
9547;SDS011;4812;51.992;8.648;2023-02-15T09:23:56;30.00;;;15.97;;
9547;SDS011;4812;51.992;8.648;2023-02-15T09:26:26;26.67;;;16.97;;
9547;SDS011;4812;51.992;8.648;2023-02-15T09:28:55;33.43;;;18.70;;
9547;SDS011;4812;51.992;8.648;2023-02-15T09:34:14;25.27;;;15.90;;
9547;SDS011;4812;51.992;8.648;2023-02-15T09:36:44;23.80;;;15.47;;
9547;SDS011;4812;51.992;8.648;2023-02-15T09:39:13;29.77;;;16.03;;
9547;SDS011;4812;51.992;8.648;2023-02-15T09:41:50;25.97;;;15.70;;
9547;SDS011;4812;51.992;8.648;2023-02-15T09:44:27;30.23;;;17.97;;
9547;SDS011;4812;51.992;8.648;2023-02-15T09:50:09;28.93;;;16.27;;
9547;SDS011;4812;51.992;8.648;2023-02-15T09:55:46;26.07;;;14.87;;
9547;SDS011;4812;51.992;8.648;2023-02-15T09:58:20;26.63;;;16.40;;
9547;SDS011;4812;51.992;8.648;2023-02-15T10:00:54;23.20;;;14.57;;
9547;SDS011;4812;51.992;8.648;2023-02-15T10:03:32;23.47;;;14.70;;
9547;SDS011;4812;51.992;8.648;2023-02-15T10:06:15;22.67;;;13.97;;
9547;SDS011;4812;51.992;8.648;2023-02-15T10:11:24;20.57;;;14.10;;
9547;SDS011;4812;51.992;8.648;2023-02-15T10:14:15;24.33;;;15.17;;
9547;SDS011;4812;51.992;8.648;2023-02-15T10:16:56;24.43;;;15.30;;
9547;SDS011;4812;51.992;8.648;2023-02-15T10:22:23;26.27;;;17.37;;
9547;SDS011;4812;51.992;8.648;2023-02-15T10:24:59;26.33;;;15.00;;
9547;SDS011;4812;51.992;8.648;2023-02-15T10:27:41;23.00;;;15.43;;
9547;SDS011;4812;51.992;8.648;2023-02-15T10:30:10;22.90;;;16.47;;
9547;SDS011;4812;51.992;8.648;2023-02-15T10:32:44;23.67;;;15.47;;
9547;SDS011;4812;51.992;8.648;2023-02-15T10:35:20;21.47;;;16.10;;
9547;SDS011;4812;51.992;8.648;2023-02-15T10:37:57;22.87;;;16.93;;
9547;SDS011;4812;51.992;8.648;2023-02-15T10:40:33;20.57;;;14.30;;
9547;SDS011;4812;51.992;8.648;2023-02-15T10:46:07;22.57;;;15.60;;
9547;SDS011;4812;51.992;8.648;2023-02-15T10:48:44;21.07;;;15.37;;
9547;SDS011;4812;51.992;8.648;2023-02-15T10:54:21;20.63;;;15.60;;
9547;SDS011;4812;51.992;8.648;2023-02-15T10:56:54;22.17;;;15.53;;
9547;SDS011;4812;51.992;8.648;2023-02-15T10:59:32;20.97;;;14.80;;
9547;SDS011;4812;51.992;8.648;2023-02-15T11:05:14;18.30;;;13.47;;
9547;SDS011;4812;51.992;8.648;2023-02-15T11:07:46;18.67;;;14.23;;
9547;SDS011;4812;51.992;8.648;2023-02-15T11:10:21;19.37;;;13.50;;
9547;SDS011;4812;51.992;8.648;2023-02-15T11:12:52;19.53;;;12.93;;
9547;SDS011;4812;51.992;8.648;2023-02-15T11:15:24;18.20;;;14.60;;
9547;SDS011;4812;51.992;8.648;2023-02-15T11:17:55;20.17;;;14.13;;
9547;SDS011;4812;51.992;8.648;2023-02-15T11:20:27;16.67;;;12.50;;
9547;SDS011;4812;51.992;8.648;2023-02-15T11:22:57;17.37;;;13.37;;
9547;SDS011;4812;51.992;8.648;2023-02-15T11:25:26;19.03;;;14.00;;
9547;SDS011;4812;51.992;8.648;2023-02-15T11:27:56;19.57;;;13.27;;
9547;SDS011;4812;51.992;8.648;2023-02-15T11:30:24;16.57;;;13.57;;
9547;SDS011;4812;51.992;8.648;2023-02-15T11:32:55;16.33;;;12.57;;
9547;SDS011;4812;51.992;8.648;2023-02-15T11:35:25;17.20;;;13.73;;
9547;SDS011;4812;51.992;8.648;2023-02-15T11:37:58;19.97;;;14.97;;
9547;SDS011;4812;51.992;8.648;2023-02-15T11:40:30;17.90;;;13.07;;
9547;SDS011;4812;51.992;8.648;2023-02-15T11:46:02;22.27;;;13.60;;
9547;SDS011;4812;51.992;8.648;2023-02-15T11:48:30;17.73;;;13.93;;
9547;SDS011;4812;51.992;8.648;2023-02-15T11:51:31;16.37;;;13.20;;
9547;SDS011;4812;51.992;8.648;2023-02-15T11:53:58;17.43;;;14.00;;
9547;SDS011;4812;51.992;8.648;2023-02-15T11:59:27;19.80;;;14.50;;
9547;SDS011;4812;51.992;8.648;2023-02-15T12:01:57;19.23;;;13.70;;
9547;SDS011;4812;51.992;8.648;2023-02-15T12:04:25;19.23;;;15.03;;
9547;SDS011;4812;51.992;8.648;2023-02-15T12:06:57;18.77;;;14.93;;
9547;SDS011;4812;51.992;8.648;2023-02-15T12:09:29;15.80;;;13.90;;
9547;SDS011;4812;51.992;8.648;2023-02-15T12:17:50;16.30;;;14.47;;
9547;SDS011;4812;51.992;8.648;2023-02-15T12:20:23;16.37;;;14.43;;
9547;SDS011;4812;51.992;8.648;2023-02-15T12:25:59;16.87;;;14.13;;
9547;SDS011;4812;51.992;8.648;2023-02-15T12:28:30;16.43;;;13.63;;
9547;SDS011;4812;51.992;8.648;2023-02-15T12:31:00;16.53;;;14.30;;
9547;SDS011;4812;51.992;8.648;2023-02-15T12:33:30;16.93;;;13.27;;
9547;SDS011;4812;51.992;8.648;2023-02-15T12:36:02;17.17;;;14.43;;
9547;SDS011;4812;51.992;8.648;2023-02-15T12:38:31;16.77;;;14.60;;
9547;SDS011;4812;51.992;8.648;2023-02-15T12:41:02;17.63;;;14.43;;
9547;SDS011;4812;51.992;8.648;2023-02-15T12:46:28;17.67;;;14.50;;
9547;SDS011;4812;51.992;8.648;2023-02-15T12:52:11;17.87;;;14.20;;
9547;SDS011;4812;51.992;8.648;2023-02-15T12:54:51;18.37;;;14.10;;
9547;SDS011;4812;51.992;8.648;2023-02-15T12:57:24;17.33;;;14.73;;
9547;SDS011;4812;51.992;8.648;2023-02-15T12:59:54;19.03;;;14.53;;
9547;SDS011;4812;51.992;8.648;2023-02-15T13:02:27;16.63;;;14.63;;
9547;SDS011;4812;51.992;8.648;2023-02-15T13:04:56;16.87;;;14.17;;
9547;SDS011;4812;51.992;8.648;2023-02-15T13:07:28;16.67;;;14.03;;
9547;SDS011;4812;51.992;8.648;2023-02-15T13:09:58;15.67;;;13.37;;
9547;SDS011;4812;51.992;8.648;2023-02-15T13:12:27;16.03;;;14.37;;
9547;SDS011;4812;51.992;8.648;2023-02-15T13:14:56;15.63;;;13.50;;
9547;SDS011;4812;51.992;8.648;2023-02-15T13:17:26;16.60;;;13.80;;
9547;SDS011;4812;51.992;8.648;2023-02-15T13:19:56;18.60;;;14.47;;
9547;SDS011;4812;51.992;8.648;2023-02-15T13:25:29;17.30;;;14.37;;
9547;SDS011;4812;51.992;8.648;2023-02-15T13:28:02;15.40;;;13.80;;
9547;SDS011;4812;51.992;8.648;2023-02-15T13:30:31;17.53;;;14.17;;
9547;SDS011;4812;51.992;8.648;2023-02-15T13:33:02;15.47;;;13.87;;
9547;SDS011;4812;51.992;8.648;2023-02-15T13:35:35;16.10;;;14.37;;
9547;SDS011;4812;51.992;8.648;2023-02-15T13:41:03;16.10;;;14.23;;
9547;SDS011;4812;51.992;8.648;2023-02-15T13:43:35;18.60;;;14.20;;
9547;SDS011;4812;51.992;8.648;2023-02-15T13:46:12;18.50;;;15.33;;
9547;SDS011;4812;51.992;8.648;2023-02-15T13:48:46;18.00;;;14.60;;
9547;SDS011;4812;51.992;8.648;2023-02-15T13:51:22;16.80;;;14.17;;
9547;SDS011;4812;51.992;8.648;2023-02-15T13:54:03;18.87;;;14.97;;
9547;SDS011;4812;51.992;8.648;2023-02-15T13:56:40;16.23;;;14.47;;
9547;SDS011;4812;51.992;8.648;2023-02-15T14:02:20;16.83;;;14.63;;
9547;SDS011;4812;51.992;8.648;2023-02-15T14:05:12;17.00;;;14.13;;
9547;SDS011;4812;51.992;8.648;2023-02-15T14:10:44;17.27;;;14.57;;
9547;SDS011;4812;51.992;8.648;2023-02-15T14:16:24;16.40;;;14.53;;
9547;SDS011;4812;51.992;8.648;2023-02-15T14:19:01;17.67;;;14.00;;
9547;SDS011;4812;51.992;8.648;2023-02-15T14:21:34;16.43;;;14.70;;
9547;SDS011;4812;51.992;8.648;2023-02-15T14:27:09;15.77;;;13.97;;
9547;SDS011;4812;51.992;8.648;2023-02-15T14:29:45;16.67;;;13.77;;
9547;SDS011;4812;51.992;8.648;2023-02-15T14:32:16;15.33;;;13.33;;
9547;SDS011;4812;51.992;8.648;2023-02-15T14:34:48;16.90;;;14.07;;
9547;SDS011;4812;51.992;8.648;2023-02-15T14:37:22;18.03;;;14.20;;
9547;SDS011;4812;51.992;8.648;2023-02-15T14:39:55;17.03;;;13.80;;
9547;SDS011;4812;51.992;8.648;2023-02-15T14:42:43;15.80;;;14.10;;
9547;SDS011;4812;51.992;8.648;2023-02-15T14:45:17;15.70;;;13.70;;
9547;SDS011;4812;51.992;8.648;2023-02-15T14:47:48;15.23;;;13.73;;
9547;SDS011;4812;51.992;8.648;2023-02-15T14:56:12;14.80;;;13.23;;
9547;SDS011;4812;51.992;8.648;2023-02-15T14:58:54;15.83;;;14.13;;
9547;SDS011;4812;51.992;8.648;2023-02-15T15:01:24;16.57;;;13.90;;
9547;SDS011;4812;51.992;8.648;2023-02-15T15:03:54;15.13;;;13.60;;
9547;SDS011;4812;51.992;8.648;2023-02-15T15:06:24;15.27;;;13.70;;
9547;SDS011;4812;51.992;8.648;2023-02-15T15:08:54;17.00;;;14.20;;
9547;SDS011;4812;51.992;8.648;2023-02-15T15:20:14;15.13;;;13.50;;
9547;SDS011;4812;51.992;8.648;2023-02-15T15:26:21;15.13;;;12.97;;
9547;SDS011;4812;51.992;8.648;2023-02-15T15:28:54;17.30;;;13.83;;
9547;SDS011;4812;51.992;8.648;2023-02-15T15:37:18;13.80;;;12.40;;
9547;SDS011;4812;51.992;8.648;2023-02-15T15:43:44;17.23;;;12.93;;
9547;SDS011;4812;51.992;8.648;2023-02-15T15:46:24;14.60;;;13.07;;
9547;SDS011;4812;51.992;8.648;2023-02-15T15:49:02;14.60;;;12.77;;
9547;SDS011;4812;51.992;8.648;2023-02-15T15:51:30;16.40;;;12.60;;
9547;SDS011;4812;51.992;8.648;2023-02-15T15:54:01;15.60;;;12.90;;
9547;SDS011;4812;51.992;8.648;2023-02-15T15:56:30;17.73;;;13.87;;
9547;SDS011;4812;51.992;8.648;2023-02-15T15:59:01;17.73;;;13.90;;
9547;SDS011;4812;51.992;8.648;2023-02-15T16:04:32;16.87;;;14.10;;
9547;SDS011;4812;51.992;8.648;2023-02-15T16:07:12;17.13;;;13.87;;
9547;SDS011;4812;51.992;8.648;2023-02-15T16:09:57;15.67;;;13.60;;
9547;SDS011;4812;51.992;8.648;2023-02-15T16:12:27;14.50;;;12.63;;
9547;SDS011;4812;51.992;8.648;2023-02-15T16:14:55;15.87;;;13.73;;
9547;SDS011;4812;51.992;8.648;2023-02-15T16:17:23;18.67;;;13.27;;
9547;SDS011;4812;51.992;8.648;2023-02-15T16:19:52;15.53;;;12.67;;
9547;SDS011;4812;51.992;8.648;2023-02-15T16:22:23;16.77;;;13.17;;
9547;SDS011;4812;51.992;8.648;2023-02-15T16:27:52;13.50;;;12.10;;
9547;SDS011;4812;51.992;8.648;2023-02-15T16:30:21;16.13;;;13.97;;
9547;SDS011;4812;51.992;8.648;2023-02-15T16:35:53;16.50;;;13.03;;
9547;SDS011;4812;51.992;8.648;2023-02-15T16:38:23;17.57;;;13.73;;
9547;SDS011;4812;51.992;8.648;2023-02-15T16:40:58;18.40;;;13.37;;
9547;SDS011;4812;51.992;8.648;2023-02-15T16:43:29;16.80;;;12.23;;
9547;SDS011;4812;51.992;8.648;2023-02-15T16:48:57;17.63;;;12.87;;
9547;SDS011;4812;51.992;8.648;2023-02-15T16:51:28;19.37;;;13.80;;
9547;SDS011;4812;51.992;8.648;2023-02-15T16:53:58;19.80;;;12.67;;
9547;SDS011;4812;51.992;8.648;2023-02-15T16:56:31;16.50;;;12.43;;
9547;SDS011;4812;51.992;8.648;2023-02-15T16:59:00;16.67;;;12.23;;
9547;SDS011;4812;51.992;8.648;2023-02-15T17:01:29;17.43;;;12.67;;
9547;SDS011;4812;51.992;8.648;2023-02-15T17:04:10;16.80;;;11.93;;
9547;SDS011;4812;51.992;8.648;2023-02-15T17:06:40;18.90;;;13.00;;
9547;SDS011;4812;51.992;8.648;2023-02-15T17:09:13;17.60;;;12.87;;
9547;SDS011;4812;51.992;8.648;2023-02-15T17:11:44;22.40;;;13.10;;
9547;SDS011;4812;51.992;8.648;2023-02-15T17:14:16;20.67;;;12.57;;
9547;SDS011;4812;51.992;8.648;2023-02-15T17:17:24;17.77;;;12.57;;
9547;SDS011;4812;51.992;8.648;2023-02-15T17:19:52;18.73;;;13.03;;
9547;SDS011;4812;51.992;8.648;2023-02-15T17:22:21;18.60;;;12.93;;
9547;SDS011;4812;51.992;8.648;2023-02-15T17:24:50;19.70;;;13.53;;
9547;SDS011;4812;51.992;8.648;2023-02-15T17:27:25;20.47;;;13.93;;
9547;SDS011;4812;51.992;8.648;2023-02-15T17:32:56;19.17;;;14.00;;
9547;SDS011;4812;51.992;8.648;2023-02-15T17:35:25;19.43;;;13.90;;
9547;SDS011;4812;51.992;8.648;2023-02-15T17:38:03;21.83;;;13.37;;
9547;SDS011;4812;51.992;8.648;2023-02-15T17:40:33;23.07;;;13.53;;
9547;SDS011;4812;51.992;8.648;2023-02-15T17:43:01;18.50;;;12.97;;
9547;SDS011;4812;51.992;8.648;2023-02-15T17:45:33;20.80;;;14.30;;
9547;SDS011;4812;51.992;8.648;2023-02-15T17:48:03;21.13;;;13.87;;
9547;SDS011;4812;51.992;8.648;2023-02-15T17:50:31;20.97;;;14.00;;
9547;SDS011;4812;51.992;8.648;2023-02-15T17:53:00;20.03;;;13.70;;
9547;SDS011;4812;51.992;8.648;2023-02-15T17:55:28;25.80;;;14.67;;
9547;SDS011;4812;51.992;8.648;2023-02-15T17:58:01;24.03;;;16.10;;
9547;SDS011;4812;51.992;8.648;2023-02-15T18:00:29;25.50;;;17.33;;
9547;SDS011;4812;51.992;8.648;2023-02-15T18:03:16;21.73;;;14.37;;
9547;SDS011;4812;51.992;8.648;2023-02-15T18:06:01;22.17;;;14.47;;